Time;durP1;ratioP1;P1;durP2;ratioP2;P2;SDS_P1;SDS_P2;PMS_P1;PMS_P2;Temp;Humidity;BMP_temperature;BMP_pressure;BME280_temperature;BME280_humidity;BME280_pressure;Samples;Min_cycle;Max_cycle;Signal;HPM_P1;HPM_P2
2021/12/20 00:00:25;;;;;;;4.95;2.05;;;6.90;99.90;;;;;;4907779;29;20044;-78
2021/12/20 00:02:57;;;;;;;5.78;2.17;;;6.90;99.90;;;;;;4905983;29;20048;-78
2021/12/20 00:05:26;;;;;;;7.13;1.88;;;6.90;99.90;;;;;;4905091;29;20470;-79
2021/12/20 00:07:54;;;;;;;7.63;2.40;;;6.80;99.90;;;;;;4925153;29;20481;-77
2021/12/20 00:10:23;;;;;;;6.60;2.55;;;6.80;99.90;;;;;;4906035;29;20495;-78
2021/12/20 00:12:51;;;;;;;6.75;2.30;;;6.70;99.90;;;;;;4906119;29;20051;-80
2021/12/20 00:15:19;;;;;;;6.55;2.10;;;6.70;99.90;;;;;;4910363;29;20048;-79
2021/12/20 00:17:49;;;;;;;7.75;2.50;;;6.70;99.90;;;;;;4906137;29;20059;-79
2021/12/20 00:20:42;;;;;;;8.23;2.37;;;6.70;99.90;;;;;;4901832;29;20049;-78
2021/12/20 00:23:11;;;;;;;6.35;2.10;;;6.60;99.90;;;;;;4923544;29;20048;-78
2021/12/20 00:25:40;;;;;;;6.70;3.20;;;6.60;99.90;;;;;;4897035;29;20530;-78
2021/12/20 00:28:08;;;;;;;8.05;2.70;;;6.60;99.90;;;;;;4907433;29;20076;-81
2021/12/20 00:30:37;;;;;;;6.25;2.15;;;6.60;99.90;;;;;;4912170;29;20398;-78
2021/12/20 00:33:07;;;;;;;6.00;2.10;;;6.60;99.90;;;;;;4912961;29;20462;-78
2021/12/20 00:35:35;;;;;;;5.50;2.05;;;6.60;99.90;;;;;;4890002;29;20096;-79
2021/12/20 00:40:50;;;;;;;5.60;2.83;;;6.60;99.90;;;;;;4902970;29;20052;-80
2021/12/20 00:43:19;;;;;;;5.90;2.03;;;6.60;99.90;;;;;;4898216;29;20062;-79
2021/12/20 00:45:47;;;;;;;5.97;2.33;;;6.60;99.90;;;;;;4907678;29;20060;-82
2021/12/20 00:48:17;;;;;;;7.32;2.42;;;6.70;99.90;;;;;;4894499;29;20049;-78
2021/12/20 00:50:46;;;;;;;5.53;1.80;;;6.70;99.90;;;;;;4912453;29;20067;-79
2021/12/20 00:53:14;;;;;;;7.00;2.10;;;6.70;99.90;;;;;;4901045;29;20050;-79
2021/12/20 00:55:44;;;;;;;5.40;1.83;;;6.80;99.90;;;;;;4903851;29;20045;-79
2021/12/20 00:58:12;;;;;;;6.40;2.60;;;6.70;99.90;;;;;;4915538;29;20055;-79
2021/12/20 01:00:46;;;;;;;7.03;2.20;;;6.70;99.90;;;;;;4898014;29;20401;-79
2021/12/20 01:03:15;;;;;;;6.57;2.00;;;6.80;99.90;;;;;;4913758;29;20045;-79
2021/12/20 01:05:45;;;;;;;9.32;2.03;;;6.70;99.90;;;;;;4897869;29;20052;-79
2021/12/20 01:08:14;;;;;;;4.60;1.63;;;6.80;99.90;;;;;;4913982;29;20044;-79
2021/12/20 01:10:46;;;;;;;5.57;2.00;;;6.70;99.90;;;;;;4895315;29;20133;-79
2021/12/20 01:13:16;;;;;;;6.78;2.25;;;6.70;99.90;;;;;;4913050;29;20048;-79
2021/12/20 01:15:49;;;;;;;8.55;2.85;;;6.80;99.90;;;;;;4894097;29;20052;-80
2021/12/20 01:18:19;;;;;;;7.93;2.38;;;6.80;99.90;;;;;;4888852;29;20051;-79
2021/12/20 01:21:38;;;;;;;6.25;2.22;;;6.80;99.90;;;;;;4907977;29;20526;-78
2021/12/20 01:24:07;;;;;;;5.50;2.27;;;6.70;99.90;;;;;;4912569;29;20052;-79
2021/12/20 01:26:36;;;;;;;4.03;1.38;;;6.70;99.90;;;;;;4914671;29;20047;-78
2021/12/20 01:29:05;;;;;;;4.72;2.00;;;6.70;99.90;;;;;;4914127;29;20198;-79
2021/12/20 01:31:33;;;;;;;6.40;2.20;;;6.70;99.90;;;;;;4914166;29;20134;-79
2021/12/20 01:34:01;;;;;;;4.85;1.75;;;6.70;99.90;;;;;;4913845;29;20051;-79
2021/12/20 01:36:31;;;;;;;5.77;2.13;;;6.70;99.90;;;;;;4902051;29;20051;-79
2021/12/20 01:39:01;;;;;;;5.65;2.33;;;6.80;99.90;;;;;;4913260;29;20067;-79
2021/12/20 01:41:30;;;;;;;5.85;2.10;;;6.80;99.90;;;;;;4917351;29;20051;-79
2021/12/20 01:43:58;;;;;;;7.43;1.80;;;6.80;99.90;;;;;;4921889;29;20048;-79
2021/12/20 01:46:26;;;;;;;5.88;2.28;;;6.90;99.90;;;;;;4910591;29;20067;-78
2021/12/20 01:48:55;;;;;;;7.07;2.17;;;6.90;99.90;;;;;;4909129;29;20052;-78
2021/12/20 01:51:44;;;;;;;5.45;1.83;;;6.80;99.90;;;;;;4911383;29;20051;-78
2021/12/20 01:54:17;;;;;;;6.25;2.15;;;6.90;99.90;;;;;;4905224;29;20060;-79
2021/12/20 01:57:10;;;;;;;4.45;2.13;;;6.90;99.90;;;;;;4914604;29;20070;-79
2021/12/20 01:59:40;;;;;;;6.05;2.17;;;6.90;99.90;;;;;;4895032;29;20810;-79
2021/12/20 02:02:09;;;;;;;3.57;1.53;;;6.90;99.90;;;;;;4912882;29;20051;-79
2021/12/20 02:04:45;;;;;;;3.95;1.70;;;6.80;99.90;;;;;;4913584;29;20043;-79
2021/12/20 02:07:32;;;;;;;4.13;1.63;;;6.80;99.90;;;;;;4913970;29;20111;-79
2021/12/20 02:10:04;;;;;;;5.32;2.35;;;6.80;99.90;;;;;;4904478;29;20474;-79
2021/12/20 02:12:32;;;;;;;6.32;2.05;;;6.90;99.90;;;;;;4905701;29;20048;-78
2021/12/20 02:15:00;;;;;;;4.13;1.87;;;6.90;99.90;;;;;;4911130;29;20063;-80
2021/12/20 02:17:29;;;;;;;5.95;1.70;;;6.90;99.90;;;;;;4918691;29;20422;-81
2021/12/20 02:20:01;;;;;;;8.38;2.85;;;7.00;99.90;;;;;;4912179;29;20483;-79
2021/12/20 02:22:31;;;;;;;7.25;2.83;;;7.00;99.90;;;;;;4894017;29;20056;-78
2021/12/20 02:24:59;;;;;;;6.32;2.35;;;7.00;99.90;;;;;;4889423;29;20056;-79
2021/12/20 02:27:28;;;;;;;5.87;2.07;;;7.00;99.90;;;;;;4898133;29;20426;-79
2021/12/20 02:30:06;;;;;;;4.25;1.67;;;7.00;99.90;;;;;;4899884;29;20103;-79
2021/12/20 02:38:38;;;;;;;5.07;1.88;;;6.80;99.90;;;;;;4884260;29;20048;-79
2021/12/20 02:41:14;;;;;;;5.33;2.33;;;6.80;99.90;;;;;;4893457;29;20194;-77
2021/12/20 02:43:51;;;;;;;4.47;1.67;;;6.80;99.90;;;;;;4895182;29;20505;-78
2021/12/20 02:46:31;;;;;;;5.07;1.77;;;6.80;99.90;;;;;;4905323;29;20060;-78
2021/12/20 02:49:00;;;;;;;5.07;1.38;;;6.80;99.90;;;;;;4895403;29;20218;-79
2021/12/20 02:51:32;;;;;;;3.53;1.45;;;6.80;99.90;;;;;;4910475;29;20043;-80
2021/12/20 02:54:02;;;;;;;3.63;1.27;;;6.80;99.90;;;;;;4892856;29;20499;-79
2021/12/20 02:56:31;;;;;;;6.85;1.95;;;6.80;99.90;;;;;;4904501;29;20520;-80
2021/12/20 02:59:01;;;;;;;6.50;2.13;;;6.80;99.90;;;;;;4910569;29;20067;-79
2021/12/20 03:01:31;;;;;;;4.97;1.88;;;6.80;99.90;;;;;;4889868;29;20466;-79
2021/12/20 03:04:00;;;;;;;8.30;2.03;;;6.80;99.90;;;;;;4906251;29;20050;-80
2021/12/20 03:06:36;;;;;;;4.10;1.37;;;6.80;99.90;;;;;;4910363;29;20053;-80
2021/12/20 03:12:00;;;;;;;4.63;1.48;;;6.80;99.90;;;;;;4913214;29;20499;-79
2021/12/20 03:14:36;;;;;;;4.78;1.58;;;6.80;99.90;;;;;;4906642;29;20144;-79
2021/12/20 03:17:06;;;;;;;3.58;1.48;;;6.70;99.90;;;;;;4889454;29;20047;-79
2021/12/20 03:19:35;;;;;;;5.00;1.50;;;6.80;99.90;;;;;;4905584;29;20099;-79
2021/12/20 03:22:08;;;;;;;4.78;1.80;;;6.80;99.90;;;;;;4891385;29;20052;-79
2021/12/20 03:24:37;;;;;;;5.45;2.10;;;6.80;99.90;;;;;;4906528;29;20048;-79
2021/12/20 03:27:07;;;;;;;3.58;1.23;;;6.80;99.90;;;;;;4898937;29;20091;-80
2021/12/20 03:29:36;;;;;;;6.80;1.88;;;6.70;99.90;;;;;;4896839;29;20116;-79
2021/12/20 03:32:04;;;;;;;8.47;1.60;;;6.80;99.90;;;;;;4898820;29;20055;-78
2021/12/20 03:34:57;;;;;;;5.53;1.38;;;6.80;99.90;;;;;;4905966;29;20463;-79
2021/12/20 03:37:28;;;;;;;5.32;1.48;;;6.70;99.90;;;;;;4903218;29;20083;-80
2021/12/20 03:39:56;;;;;;;2.90;1.48;;;6.70;99.90;;;;;;4892278;29;20134;-80
2021/12/20 03:42:28;;;;;;;5.20;1.73;;;6.60;99.90;;;;;;4905722;29;20083;-79
2021/12/20 03:44:57;;;;;;;4.33;0.93;;;6.60;99.90;;;;;;4905914;29;20045;-79
2021/12/20 03:47:26;;;;;;;3.65;1.30;;;6.70;99.90;;;;;;4888244;29;20051;-80
2021/12/20 03:49:54;;;;;;;4.88;1.63;;;6.60;99.90;;;;;;4901980;29;20080;-79
2021/12/20 03:52:23;;;;;;;3.05;1.20;;;6.60;99.90;;;;;;4909441;29;20131;-79
2021/12/20 03:54:53;;;;;;;3.45;1.40;;;6.60;99.90;;;;;;4904266;29;20135;-80
2021/12/20 03:57:22;;;;;;;5.83;1.80;;;6.60;99.90;;;;;;4906277;29;20044;-79
2021/12/20 03:59:53;;;;;;;3.92;1.50;;;6.60;99.90;;;;;;4892914;29;20052;-80
2021/12/20 04:02:23;;;;;;;4.28;1.15;;;6.60;99.90;;;;;;4907741;29;20515;-80
2021/12/20 04:04:51;;;;;;;4.68;1.60;;;6.50;99.90;;;;;;4899215;29;20111;-79
2021/12/20 04:07:19;;;;;;;4.40;1.50;;;6.60;99.90;;;;;;4895247;29;20428;-80
2021/12/20 04:09:48;;;;;;;3.93;1.63;;;6.60;99.90;;;;;;4911515;29;20052;-80
2021/12/20 04:12:19;;;;;;;3.97;1.73;;;6.70;99.90;;;;;;4905035;29;20083;-81
2021/12/20 04:14:48;;;;;;;5.05;1.17;;;6.70;99.90;;;;;;4908898;29;20052;-79
2021/12/20 04:17:17;;;;;;;6.00;1.27;;;6.70;99.90;;;;;;4904569;29;20056;-79
2021/12/20 04:19:46;;;;;;;4.28;1.35;;;6.60;99.90;;;;;;4917753;29;20067;-79
2021/12/20 04:22:18;;;;;;;3.17;0.93;;;6.50;99.90;;;;;;4908202;29;20134;-79
2021/12/20 04:24:48;;;;;;;2.63;0.82;;;6.50;99.90;;;;;;4897703;29;20048;-79
2021/12/20 04:27:19;;;;;;;4.28;1.27;;;6.50;99.90;;;;;;4923143;29;20478;-79
2021/12/20 04:29:47;;;;;;;6.88;1.30;;;6.50;99.90;;;;;;4909138;29;20056;-79
2021/12/20 04:32:16;;;;;;;5.68;1.42;;;6.60;99.90;;;;;;4887772;29;20048;-79
2021/12/20 04:34:44;;;;;;;4.03;1.40;;;6.60;99.90;;;;;;4893664;29;20076;-80
2021/12/20 04:37:12;;;;;;;3.00;0.90;;;6.60;99.90;;;;;;4901244;29;20048;-79
2021/12/20 04:39:40;;;;;;;3.85;1.00;;;6.70;99.90;;;;;;4903509;29;20052;-79
2021/12/20 04:42:09;;;;;;;3.42;1.45;;;6.70;99.90;;;;;;4907415;29;20131;-80
2021/12/20 04:44:39;;;;;;;5.78;1.45;;;6.80;99.90;;;;;;4912120;29;20044;-80
2021/12/20 04:47:08;;;;;;;4.63;1.80;;;6.80;99.90;;;;;;4910747;29;20056;-79
2021/12/20 04:49:37;;;;;;;6.13;1.38;;;6.80;99.90;;;;;;4910637;29;20144;-79
2021/12/20 04:52:05;;;;;;;3.35;1.15;;;6.80;99.90;;;;;;4902117;29;20052;-80
2021/12/20 04:54:34;;;;;;;3.55;0.98;;;6.70;99.90;;;;;;4896689;29;20496;-80
2021/12/20 04:57:03;;;;;;;2.95;1.33;;;;;;;;;;4890135;29;20110;-79
2021/12/20 04:59:32;;;;;;;3.40;0.97;;;;;;;;;;4904173;29;20059;-80
2021/12/20 05:02:02;;;;;;;2.47;1.02;;;;;;;;;;4899284;29;20044;-79
2021/12/20 05:04:31;;;;;;;5.18;1.33;;;;;;;;;;4912189;29;20135;-79
2021/12/20 05:07:02;;;;;;;2.63;0.90;;;;;;;;;;4905318;29;20164;-79
2021/12/20 05:09:37;;;;;;;7.55;1.00;;;;;;;;;;4904265;29;20044;-81
2021/12/20 05:12:11;;;;;;;3.53;1.40;;;;;;;;;;4909012;29;20052;-82
2021/12/20 05:14:41;;;;;;;4.22;1.40;;;;;;;;;;4897956;29;20506;-79
2021/12/20 05:17:12;;;;;;;3.67;1.00;;;;;;;;;;4902783;29;20045;-79
2021/12/20 05:19:42;;;;;;;6.47;1.38;;;;;;;;;;4905167;29;20138;-79
2021/12/20 05:22:12;;;;;;;3.92;0.85;;;;;;;;;;4886672;29;20099;-79
2021/12/20 05:24:42;;;;;;;4.07;1.63;;;;;;;;;;4905320;29;20399;-79
2021/12/20 05:27:12;;;;;;;3.15;1.10;;;;;;;;;;4883390;29;20072;-79
2021/12/20 05:29:40;;;;;;;4.95;1.23;;;;;;;;;;4914308;29;20114;-80
2021/12/20 05:32:09;;;;;;;2.70;1.02;;;;;;;;;;4896463;29;20521;-79
2021/12/20 05:34:39;;;;;;;5.35;0.95;;;;;;;;;;4903415;29;20514;-79
2021/12/20 05:37:08;;;;;;;2.93;0.97;;;;;;;;;;4912666;29;20067;-78
2021/12/20 05:39:36;;;;;;;4.40;1.13;;;;;;;;;;4903747;29;20522;-79
2021/12/20 05:42:05;;;;;;;4.22;1.60;;;;;;;;;;4903082;29;20052;-80
2021/12/20 05:44:35;;;;;;;3.00;1.17;;;;;;;;;;4904555;29;20050;-81
2021/12/20 05:47:05;;;;;;;4.35;1.35;;;;;;;;;;4899310;29;20491;-80
2021/12/20 05:49:34;;;;;;;4.67;1.17;;;;;;;;;;4900545;29;20051;-78
2021/12/20 05:52:05;;;;;;;4.13;1.55;;;;;;;;;;4902649;29;20083;-77
2021/12/20 05:54:34;;;;;;;4.72;1.08;;;;;;;;;;4893895;29;20542;-82
2021/12/20 05:57:03;;;;;;;6.45;1.73;;;;;;;;;;4901657;29;20506;-79
2021/12/20 05:59:33;;;;;;;2.60;0.93;;;;;;;;;;4910641;29;20135;-79
2021/12/20 06:02:02;;;;;;;3.93;1.67;;;;;;;;;;4916738;29;20048;-78
2021/12/20 06:04:30;;;;;;;2.88;1.20;;;;;;;;;;4916532;29;20048;-78
2021/12/20 06:06:59;;;;;;;4.38;1.15;;;;;;;;;;4907844;29;20086;-74
2021/12/20 06:09:30;;;;;;;5.63;1.35;;;;;;;;;;4908253;29;20048;-74
2021/12/20 06:12:00;;;;;;;3.58;1.45;;;;;;;;;;4907633;29;20059;-75
2021/12/20 06:14:28;;;;;;;4.37;1.20;;;;;;;;;;4909465;29;20455;-74
2021/12/20 06:16:58;;;;;;;4.85;1.55;;;;;;;;;;4913226;29;20381;-89
2021/12/20 06:19:27;;;;;;;4.22;1.30;;;;;;;;;;4898729;29;20055;-75
2021/12/20 06:24:52;;;;;;;5.53;1.77;;;;;;;;;;4916769;29;20047;-86
2021/12/20 06:27:21;;;;;;;4.27;1.80;;;;;;;;;;4900435;29;20056;-80
2021/12/20 06:29:50;;;;;;;6.47;1.95;;;;;;;;;;4905213;29;20086;-78
2021/12/20 06:32:19;;;;;;;3.90;1.40;;;;;;;;;;4905200;29;20052;-82
2021/12/20 06:34:47;;;;;;;5.05;1.80;;;;;;;;;;4918459;29;20083;-77
2021/12/20 06:37:16;;;;;;;3.90;1.55;;;;;;;;;;4907733;29;20052;-75
2021/12/20 06:39:45;;;;;;;4.33;1.30;;;;;;;;;;4909301;29;20054;-74
2021/12/20 06:42:16;;;;;;;4.65;1.50;;;;;;;;;;4912084;29;20044;-76
2021/12/20 06:44:45;;;;;;;4.65;1.45;;;;;;;;;;4915693;29;20168;-75
2021/12/20 06:47:19;;;;;;;5.35;1.85;;;;;;;;;;4911942;29;20055;-75
2021/12/20 06:49:49;;;;;;;3.53;1.42;;;;;;;;;;4895322;29;20056;-74
2021/12/20 06:52:17;;;;;;;5.97;2.33;;;;;;;;;;4928149;29;20126;-74
2021/12/20 06:54:46;;;;;;;5.60;1.67;;;;;;;;;;4908235;29;20047;-75
2021/12/20 06:57:16;;;;;;;5.47;2.03;;;6.60;99.90;;;;;;4915473;29;20513;-75
2021/12/20 06:59:44;;;;;;;4.35;1.52;;;5.80;99.90;;;;;;4894080;29;20052;-77
2021/12/20 07:02:12;;;;;;;3.22;1.05;;;5.80;99.90;;;;;;4925648;29;20059;-77
2021/12/20 07:04:41;;;;;;;5.10;1.40;;;5.70;99.90;;;;;;4889642;29;20051;-74
2021/12/20 07:07:11;;;;;;;4.80;1.48;;;5.70;99.90;;;;;;4900295;29;20130;-74
2021/12/20 07:09:40;;;;;;;4.38;1.73;;;5.70;99.90;;;;;;4909347;29;20062;-75
2021/12/20 07:12:10;;;;;;;5.10;1.50;;;5.70;99.90;;;;;;4907316;29;20063;-74
2021/12/20 07:14:41;;;;;;;3.67;1.42;;;5.70;99.90;;;;;;4911996;29;20051;-76
2021/12/20 07:17:11;;;;;;;3.60;1.33;;;5.60;99.90;;;;;;4908583;29;20051;-76
2021/12/20 07:19:40;;;;;;;7.80;2.20;;;5.60;99.90;;;;;;4885811;29;20094;-77
2021/12/20 07:22:09;;;;;;;4.90;1.83;;;5.60;99.90;;;;;;4889698;29;20123;-85
2021/12/20 07:24:37;;;;;;;5.65;1.98;;;5.60;99.90;;;;;;4890476;29;20142;-83
2021/12/20 07:27:09;;;;;;;3.40;1.25;;;5.50;99.90;;;;;;4897146;29;20060;-87
2021/12/20 07:29:39;;;;;;;3.93;1.40;;;5.50;99.90;;;;;;4913460;29;20062;-89
2021/12/20 07:32:08;;;;;;;6.88;1.55;;;5.40;99.90;;;;;;4916434;29;20051;-80
2021/12/20 07:34:36;;;;;;;3.92;1.65;;;5.40;99.90;;;;;;4909461;29;20052;-77
2021/12/20 07:37:05;;;;;;;4.00;1.75;;;5.40;99.90;;;;;;4887209;29;20487;-74
2021/12/20 07:39:34;;;;;;;6.57;2.20;;;5.40;99.90;;;;;;4891260;29;20052;-74
2021/12/20 07:42:04;;;;;;;6.33;2.70;;;5.40;99.90;;;;;;4909917;29;20458;-74
2021/12/20 07:44:33;;;;;;;5.78;1.90;;;5.40;99.90;;;;;;4907692;29;20106;-74
2021/12/20 07:47:02;;;;;;;4.47;1.63;;;5.40;99.90;;;;;;4889291;29;20055;-74
2021/12/20 07:49:34;;;;;;;6.85;2.75;;;5.40;99.90;;;;;;4904850;29;20048;-75
2021/12/20 07:52:54;;;;;;;5.00;2.33;;;5.30;99.90;;;;;;5086433;23;20443;-76
2021/12/20 07:55:23;;;;;;;5.63;2.30;;;5.30;99.90;;;;;;4926625;29;20051;-77
2021/12/20 07:58:12;;;;;;;4.65;2.40;;;5.20;99.90;;;;;;4928201;29;20052;-77
2021/12/20 08:00:40;;;;;;;7.22;1.92;;;5.20;99.90;;;;;;4929396;29;20525;-77
2021/12/20 08:03:09;;;;;;;7.95;2.30;;;5.20;99.90;;;;;;4925325;29;20511;-78
2021/12/20 08:05:39;;;;;;;3.83;2.08;;;5.20;99.90;;;;;;4904921;29;20052;-76
2021/12/20 08:08:09;;;;;;;9.30;4.20;;;5.20;99.90;;;;;;4924842;29;20579;-74
2021/12/20 08:10:37;;;;;;;8.15;2.90;;;5.20;99.90;;;;;;4922273;29;20054;-74
2021/12/20 08:13:05;;;;;;;5.40;1.92;;;5.20;99.90;;;;;;4926727;29;20065;-74
2021/12/20 08:15:33;;;;;;;10.25;3.53;;;5.20;99.90;;;;;;4920597;29;20046;-73
2021/12/20 08:18:02;;;;;;;11.93;2.55;;;5.20;99.90;;;;;;4925230;29;20110;-74
2021/12/20 08:20:31;;;;;;;5.83;1.87;;;5.20;99.90;;;;;;4924491;29;20051;-73
2021/12/20 08:23:03;;;;;;;5.47;2.20;;;5.20;99.90;;;;;;4917776;29;20052;-73
2021/12/20 08:25:35;;;;;;;5.00;1.92;;;5.20;99.90;;;;;;4935198;29;20448;-74
2021/12/20 08:28:04;;;;;;;5.10;1.45;;;5.20;99.90;;;;;;4928969;29;20063;-74
2021/12/20 08:30:34;;;;;;;8.55;2.10;;;5.20;99.90;;;;;;4936596;29;20466;-75
2021/12/20 08:33:05;;;;;;;4.70;2.00;;;5.20;99.90;;;;;;4941579;29;20163;-76
2021/12/20 08:35:34;;;;;;;4.75;2.25;;;5.20;99.90;;;;;;4945165;29;20138;-76
2021/12/20 08:38:04;;;;;;;3.40;1.48;;;5.20;99.90;;;;;;4935693;28;20043;-76
2021/12/20 08:40:32;;;;;;;4.38;1.63;;;5.20;99.90;;;;;;4937832;29;20048;-75
2021/12/20 08:43:02;;;;;;;4.47;1.83;;;5.10;99.90;;;;;;4939076;29;20047;-76
2021/12/20 08:45:30;;;;;;;4.83;2.00;;;5.10;99.90;;;;;;4930428;29;20126;-76
2021/12/20 08:48:02;;;;;;;3.30;1.02;;;5.10;99.90;;;;;;4921285;29;20498;-77
2021/12/20 08:50:32;;;;;;;5.95;1.58;;;5.10;99.90;;;;;;4924721;29;20485;-78
2021/12/20 08:53:10;;;;;;;5.70;1.30;;;5.20;99.90;;;;;;4924849;28;20071;-76
2021/12/20 08:55:40;;;;;;;4.80;1.80;;;5.20;99.90;;;;;;4950466;28;20071;-75
2021/12/20 08:58:10;;;;;;;2.20;1.00;;;5.30;99.90;;;;;;4922654;29;20052;-74
2021/12/20 09:00:39;;;;;;;4.75;1.75;;;5.30;99.90;;;;;;4924539;29;20114;-75
2021/12/20 09:03:07;;;;;;;3.30;1.50;;;5.30;99.90;;;;;;4940736;29;20044;-75
2021/12/20 09:05:37;;;;;;;6.13;2.35;;;5.30;99.90;;;;;;4917839;29;20051;-74
2021/12/20 09:08:09;;;;;;;5.65;1.63;;;5.40;99.90;;;;;;4947138;29;20044;-74
2021/12/20 09:10:38;;;;;;;3.37;1.10;;;5.40;99.90;;;;;;4929980;29;20043;-75
2021/12/20 09:13:07;;;;;;;5.45;1.70;;;5.40;99.90;;;;;;4937928;29;20122;-76
2021/12/20 09:15:36;;;;;;;6.40;2.28;;;5.40;99.90;;;;;;4935967;29;20557;-76
2021/12/20 09:18:07;;;;;;;5.22;1.60;;;5.50;99.90;;;;;;4915717;29;20054;-72
2021/12/20 09:20:37;;;;;;;8.00;1.30;;;5.50;99.90;;;;;;4938679;29;20494;-75
2021/12/20 09:23:11;;;;;;;6.70;2.40;;;5.50;99.90;;;;;;4940689;29;20062;-77
2021/12/20 09:25:43;;;;;;;2.20;1.02;;;5.40;99.90;;;;;;4944293;29;20106;-74
2021/12/20 09:28:12;;;;;;;5.45;1.52;;;5.40;99.90;;;;;;4942214;29;20059;-76
2021/12/20 09:30:45;;;;;;;5.75;1.98;;;5.40;99.90;;;;;;4915175;29;20102;-77
2021/12/20 09:33:38;;;;;;;5.45;1.92;;;5.40;99.90;;;;;;4926693;29;20063;-77
2021/12/20 09:36:12;;;;;;;5.20;2.20;;;5.50;99.90;;;;;;4910111;29;20145;-76
2021/12/20 09:38:45;;;;;;;8.75;1.80;;;5.50;99.90;;;;;;4920172;29;20441;-77
2021/12/20 09:41:59;;;;;;;8.30;1.20;;;5.60;99.90;;;;;;4924752;29;20063;-78
2021/12/20 09:44:13;;;;;;;4.28;1.50;;;5.70;99.90;;;;;;4926391;29;20130;-76
2021/12/20 09:46:48;;;;;;;4.85;1.38;;;5.70;99.90;;;;;;4933617;29;20054;-76
2021/12/20 09:49:33;;;;;;;7.33;2.33;;;5.60;99.90;;;;;;4908033;29;20062;-77
2021/12/20 09:52:52;;;;;;;3.92;1.58;;;5.60;99.90;;;;;;4938971;29;20139;-76
2021/12/20 09:55:23;;;;;;;6.97;2.15;;;5.60;99.90;;;;;;4913378;29;20098;-76
2021/12/20 09:57:52;;;;;;;5.00;2.38;;;5.60;99.90;;;;;;4932336;29;20047;-77
2021/12/20 10:00:22;;;;;;;3.38;1.60;;;5.70;99.90;;;;;;4930782;29;20055;-76
2021/12/20 10:02:52;;;;;;;4.23;1.83;;;5.70;99.90;;;;;;4950447;29;20683;-74
2021/12/20 10:05:20;;;;;;;3.67;1.65;;;5.70;99.90;;;;;;4916861;29;20047;-75
2021/12/20 10:07:51;;;;;;;4.53;1.50;;;5.70;99.90;;;;;;4949901;29;20070;-73
2021/12/20 10:10:42;;;;;;;3.72;1.60;;;5.80;99.90;;;;;;4950922;29;20051;-75
2021/12/20 10:13:21;;;;;;;14.18;1.30;;;5.80;99.90;;;;;;4950368;29;20706;-76
2021/12/20 10:15:51;;;;;;;6.10;1.83;;;5.80;99.90;;;;;;4926296;29;20509;-77
2021/12/20 10:18:46;;;;;;;3.97;1.23;;;5.90;99.90;;;;;;4935985;29;20062;-76
2021/12/20 10:21:14;;;;;;;9.55;1.90;;;5.90;99.90;;;;;;4921688;29;20059;-75
2021/12/20 10:23:49;;;;;;;4.57;1.27;;;5.90;99.90;;;;;;4919012;29;20501;-77
2021/12/20 10:26:21;;;;;;;3.63;1.20;;;5.90;99.90;;;;;;4932369;29;20048;-76
2021/12/20 10:28:52;;;;;;;4.10;1.10;;;6.00;99.90;;;;;;4941464;29;20059;-77
2021/12/20 10:31:23;;;;;;;4.28;1.75;;;6.00;99.90;;;;;;4944951;29;20486;-75
2021/12/20 10:33:54;;;;;;;3.28;1.17;;;6.10;99.90;;;;;;4936658;28;20063;-76
2021/12/20 10:36:24;;;;;;;7.03;0.98;;;6.10;99.90;;;;;;4938106;29;20082;-76
2021/12/20 10:38:56;;;;;;;6.03;1.33;;;6.10;99.90;;;;;;4929161;29;20107;-76
2021/12/20 10:41:33;;;;;;;11.80;1.40;;;6.10;99.90;;;;;;4923778;29;20134;-76
2021/12/20 10:44:14;;;;;;;3.05;0.93;;;6.00;99.90;;;;;;4929317;29;20054;-76
2021/12/20 10:47:07;;;;;;;3.35;0.63;;;6.00;99.90;;;;;;4940338;29;20047;-76
2021/12/20 10:52:38;;;;;;;1.00;0.30;;;5.90;99.90;;;;;;4918288;28;20060;-77
2021/12/20 10:55:37;;;;;;;3.03;0.40;;;5.90;99.90;;;;;;4925065;29;20050;-77
2021/12/20 10:58:31;;;;;;;1.60;0.60;;;5.80;99.90;;;;;;4901703;29;20385;-77
2021/12/20 11:01:27;;;;;;;1.40;0.45;;;5.80;99.90;;;;;;4910851;29;20147;-77
2021/12/20 11:03:59;;;;;;;4.68;0.68;;;5.70;99.90;;;;;;4902647;29;20067;-76
2021/12/20 11:09:18;;;;;;;2.80;0.30;;;5.70;99.90;;;;;;4911156;29;20177;-76
2021/12/20 11:11:50;;;;;;;7.10;1.23;;;5.80;99.90;;;;;;4930498;29;20059;-76
2021/12/20 11:14:23;;;;;;;1.67;0.30;;;5.90;99.90;;;;;;4907582;29;20051;-76
2021/12/20 11:16:55;;;;;;;2.20;0.50;;;5.80;99.60;;;;;;4904593;29;20044;-76
2021/12/20 11:19:50;;;;;;;1.92;0.40;;;5.80;99.90;;;;;;4915725;29;20520;-76
2021/12/20 11:22:21;;;;;;;1.23;0.30;;;5.80;99.60;;;;;;4913545;29;20048;-75
2021/12/20 11:24:53;;;;;;;8.02;0.77;;;5.70;98.70;;;;;;4926996;29;20047;-74
2021/12/20 11:27:25;;;;;;;1.23;0.20;;;5.70;98.70;;;;;;4917605;29;20051;-75
2021/12/20 11:29:56;;;;;;;4.13;0.43;;;5.80;99.30;;;;;;4915017;29;20060;-75
2021/12/20 11:32:26;;;;;;;1.90;0.55;;;5.80;98.80;;;;;;4915963;29;20103;-76
2021/12/20 11:34:55;;;;;;;1.03;0.27;;;5.80;98.70;;;;;;4886719;29;20086;-75
2021/12/20 11:37:27;;;;;;;3.38;0.40;;;5.90;98.30;;;;;;4914947;29;20474;-75
2021/12/20 11:39:58;;;;;;;3.92;1.00;;;5.90;97.10;;;;;;4915672;29;20063;-76
2021/12/20 14:46:36;;;;;;;2.55;1.00;;;6.20;99.50;;;;;;5302311;23;20060;31
2021/12/20 14:49:51;;;;;;;1.35;0.38;;;6.30;99.30;;;;;;4977907;23;20110;31
2021/12/20 14:52:47;;;;;;;3.72;0.82;;;6.20;99.00;;;;;;4811317;29;20094;-79
2021/12/20 14:55:19;;;;;;;2.72;0.82;;;6.20;99.20;;;;;;4808028;29;20086;-78
2021/12/20 14:58:02;;;;;;;1.37;0.33;;;6.10;98.90;;;;;;4831399;29;20053;-80
2021/12/20 17:25:25;;;;;;;5.18;2.22;;;5.10;99.90;;;;;;4876659;27;20057;-79
2021/12/20 17:27:58;;;;;;;6.05;1.92;;;5.10;99.90;;;;;;4886405;29;20053;-82
2021/12/20 17:30:30;;;;;;;3.10;1.17;;;5.10;99.90;;;;;;4861018;29;20071;-81
2021/12/20 17:33:10;;;;;;;3.47;1.60;;;5.00;99.90;;;;;;4863714;29;20122;-81
2021/12/20 17:36:11;;;;;;;7.10;1.40;;;4.90;99.90;;;;;;4872911;29;20080;-82
2021/12/20 17:41:34;;;;;;;4.53;1.30;;;4.80;99.90;;;;;;4875771;29;20064;-79
2021/12/20 18:12:04;;;;;;;6.18;2.28;;;4.60;99.90;;;;;;5644313;23;20061;-80
2021/12/20 18:14:46;;;;;;;6.33;2.20;;;4.60;99.90;;;;;;4851147;29;20045;-81
2021/12/20 18:20:44;;;;;;;4.18;2.03;;;4.50;99.90;;;;;;5121580;23;20156;-81
2021/12/20 18:23:13;;;;;;;6.47;1.80;;;4.40;99.90;;;;;;4853713;29;20057;-79
2021/12/20 18:26:09;;;;;;;5.85;2.05;;;4.30;99.90;;;;;;4865524;29;20479;-80
2021/12/20 18:28:42;;;;;;;11.10;1.83;;;4.20;99.90;;;;;;4853087;29;20052;-80
2021/12/20 18:31:11;;;;;;;6.85;1.77;;;4.20;99.90;;;;;;4866001;29;20101;-81
2021/12/20 18:33:39;;;;;;;6.90;1.92;;;4.10;99.90;;;;;;4851113;29;20053;-80
2021/12/20 18:36:07;;;;;;;9.82;3.60;;;4.10;99.90;;;;;;4863456;29;20118;-79
